Terminal Aerodrome Forecast
Issued by NWS New Orleans/Baton Rouge, LA

Home | Current Version | Previous Version | Text Only | Print | Product List | Glossary On
Versions: 1 2 3 4 5 6 7 8 9 10 11 12 13
487
FTUS44 KLIX 241746
TAFBTR
TAF
KBTR 241746Z 2418/2518 10004KT P6SM SKC
     FM242300 17004KT P6SM SCT200
     FM250600 00000KT P6SM FEW250=

USA.gov is the U.S. government's official web portal to all federal, state and local government web resources and services.